CYGE weather

Golden Airport
Golden, British Columbia, Canada

Public forecast

Using degrees Celsius for public forecast. Weather courtesy of forecast.io.

METAR (pilot weather report)

Report is more than 2 hours old.

Retrieved 2019/05/23 00:00 UTC (3 hours ago):

CYGE 230000Z VRB02KT 20SM FEW065 SCT160 BKN240 18/05 A2998 RMK CU2AC1CI2 LAST STFD OBS/NEXT 231200Z SLP160 DENSITY ALT 3500FT

TAF (pilot weather forecast)

Forecast is more than 12 hours old.

Closest forecast is Calgary / Springbank Airport, 98.8 nm (183.0 km) E. Retrieved 2019/05/22 00:00 UTC (1 day ago):

TAF CYBW 222338Z 2300/2304 16006KT P6SM SCT080 RMK FCST BASED ON AUTO OBS. NXT FCST WILL BE ISSUED AT 231145Z